sensor_id;sensor_type;location;lat;lon;timestamp;temperature;humidity
56761;DHT22;42633;44.494;11.356;2022-07-23T00:01:23;30.80;53.60
56761;DHT22;42633;44.494;11.356;2022-07-23T00:04:27;30.80;53.30
56761;DHT22;42633;44.494;11.356;2022-07-23T00:07:32;30.80;53.10
56761;DHT22;42633;44.494;11.356;2022-07-23T00:10:36;30.80;53.10
56761;DHT22;42633;44.494;11.356;2022-07-23T00:13:40;30.80;53.20
56761;DHT22;42633;44.494;11.356;2022-07-23T00:16:45;30.70;53.20
56761;DHT22;42633;44.494;11.356;2022-07-23T00:19:49;30.70;53.30
56761;DHT22;42633;44.494;11.356;2022-07-23T00:22:54;30.60;53.40
56761;DHT22;42633;44.494;11.356;2022-07-23T00:26:02;30.60;53.80
56761;DHT22;42633;44.494;11.356;2022-07-23T00:29:07;30.50;53.90
56761;DHT22;42633;44.494;11.356;2022-07-23T00:32:11;30.50;54.10
56761;DHT22;42633;44.494;11.356;2022-07-23T00:35:17;30.50;54.60
56761;DHT22;42633;44.494;11.356;2022-07-23T00:38:22;30.40;54.80
56761;DHT22;42633;44.494;11.356;2022-07-23T00:41:27;30.40;54.30
56761;DHT22;42633;44.494;11.356;2022-07-23T00:44:31;30.40;54.10
56761;DHT22;42633;44.494;11.356;2022-07-23T00:47:35;30.40;54.10
56761;DHT22;42633;44.494;11.356;2022-07-23T00:50:40;30.40;53.90
56761;DHT22;42633;44.494;11.356;2022-07-23T00:53:45;30.40;54.00
56761;DHT22;42633;44.494;11.356;2022-07-23T00:56:49;30.30;54.10
56761;DHT22;42633;44.494;11.356;2022-07-23T00:59:53;30.30;54.30
56761;DHT22;42633;44.494;11.356;2022-07-23T01:02:57;30.30;54.40
56761;DHT22;42633;44.494;11.356;2022-07-23T01:06:02;30.30;54.30
56761;DHT22;42633;44.494;11.356;2022-07-23T01:09:07;30.30;54.40
56761;DHT22;42633;44.494;11.356;2022-07-23T01:12:11;30.30;54.20
56761;DHT22;42633;44.494;11.356;2022-07-23T01:15:15;30.20;54.10
56761;DHT22;42633;44.494;11.356;2022-07-23T01:18:19;30.20;54.00
56761;DHT22;42633;44.494;11.356;2022-07-23T01:21:23;30.10;54.10
56761;DHT22;42633;44.494;11.356;2022-07-23T01:24:29;30.10;54.30
56761;DHT22;42633;44.494;11.356;2022-07-23T01:27:43;30.00;54.50
56761;DHT22;42633;44.494;11.356;2022-07-23T01:30:48;29.90;54.50
56761;DHT22;42633;44.494;11.356;2022-07-23T01:33:52;29.90;54.50
56761;DHT22;42633;44.494;11.356;2022-07-23T01:36:56;29.90;54.70
56761;DHT22;42633;44.494;11.356;2022-07-23T01:40:00;29.90;54.80
56761;DHT22;42633;44.494;11.356;2022-07-23T01:43:05;29.80;54.80
56761;DHT22;42633;44.494;11.356;2022-07-23T01:46:11;29.80;54.90
56761;DHT22;42633;44.494;11.356;2022-07-23T01:49:19;29.80;55.10
56761;DHT22;42633;44.494;11.356;2022-07-23T01:52:36;29.70;55.00
56761;DHT22;42633;44.494;11.356;2022-07-23T01:55:40;29.70;55.10
56761;DHT22;42633;44.494;11.356;2022-07-23T01:58:44;29.70;55.10
56761;DHT22;42633;44.494;11.356;2022-07-23T02:01:49;29.60;55.20
56761;DHT22;42633;44.494;11.356;2022-07-23T02:05:00;29.60;55.50
56761;DHT22;42633;44.494;11.356;2022-07-23T02:08:04;29.50;55.60
56761;DHT22;42633;44.494;11.356;2022-07-23T02:11:12;29.50;55.80
56761;DHT22;42633;44.494;11.356;2022-07-23T02:14:16;29.40;55.80
56761;DHT22;42633;44.494;11.356;2022-07-23T02:17:20;29.40;55.80
56761;DHT22;42633;44.494;11.356;2022-07-23T02:20:24;29.40;55.90
56761;DHT22;42633;44.494;11.356;2022-07-23T02:23:29;29.40;56.00
56761;DHT22;42633;44.494;11.356;2022-07-23T02:26:33;29.30;56.10
56761;DHT22;42633;44.494;11.356;2022-07-23T02:29:41;29.30;56.10
56761;DHT22;42633;44.494;11.356;2022-07-23T02:32:45;29.30;56.30
56761;DHT22;42633;44.494;11.356;2022-07-23T02:35:49;29.30;56.50
56761;DHT22;42633;44.494;11.356;2022-07-23T02:38:55;29.20;56.40
56761;DHT22;42633;44.494;11.356;2022-07-23T02:41:59;29.30;56.40
56761;DHT22;42633;44.494;11.356;2022-07-23T02:45:03;29.20;55.80
56761;DHT22;42633;44.494;11.356;2022-07-23T02:48:08;29.20;55.80
56761;DHT22;42633;44.494;11.356;2022-07-23T02:51:12;29.20;55.90
56761;DHT22;42633;44.494;11.356;2022-07-23T02:54:20;29.20;55.90
56761;DHT22;42633;44.494;11.356;2022-07-23T02:57:24;29.10;55.80
56761;DHT22;42633;44.494;11.356;2022-07-23T03:00:28;29.10;55.70
56761;DHT22;42633;44.494;11.356;2022-07-23T03:03:32;29.10;55.70
56761;DHT22;42633;44.494;11.356;2022-07-23T03:06:37;29.10;55.70
56761;DHT22;42633;44.494;11.356;2022-07-23T03:09:41;29.10;55.80
56761;DHT22;42633;44.494;11.356;2022-07-23T03:12:45;29.00;55.90
56761;DHT22;42633;44.494;11.356;2022-07-23T03:15:50;29.00;56.10
56761;DHT22;42633;44.494;11.356;2022-07-23T03:18:55;29.00;56.00
56761;DHT22;42633;44.494;11.356;2022-07-23T03:21:59;28.90;56.40
56761;DHT22;42633;44.494;11.356;2022-07-23T03:25:04;28.90;56.60
56761;DHT22;42633;44.494;11.356;2022-07-23T03:28:12;28.90;56.90
56761;DHT22;42633;44.494;11.356;2022-07-23T03:31:16;28.80;56.80
56761;DHT22;42633;44.494;11.356;2022-07-23T03:34:21;28.70;57.10
56761;DHT22;42633;44.494;11.356;2022-07-23T03:37:25;28.70;57.10
56761;DHT22;42633;44.494;11.356;2022-07-23T03:40:29;28.70;57.30
56761;DHT22;42633;44.494;11.356;2022-07-23T03:43:34;28.60;57.40
56761;DHT22;42633;44.494;11.356;2022-07-23T03:46:39;28.60;57.50
56761;DHT22;42633;44.494;11.356;2022-07-23T03:49:43;28.60;57.70
56761;DHT22;42633;44.494;11.356;2022-07-23T03:52:47;28.60;57.90
56761;DHT22;42633;44.494;11.356;2022-07-23T03:55:52;28.50;57.90
56761;DHT22;42633;44.494;11.356;2022-07-23T03:58:56;28.50;58.10
56761;DHT22;42633;44.494;11.356;2022-07-23T04:02:01;28.50;58.10
56761;DHT22;42633;44.494;11.356;2022-07-23T04:05:05;28.50;58.10
56761;DHT22;42633;44.494;11.356;2022-07-23T04:08:10;28.50;58.20
56761;DHT22;42633;44.494;11.356;2022-07-23T04:11:16;28.40;58.30
56761;DHT22;42633;44.494;11.356;2022-07-23T04:14:21;28.50;58.40
56761;DHT22;42633;44.494;11.356;2022-07-23T04:17:25;28.50;58.40
56761;DHT22;42633;44.494;11.356;2022-07-23T04:20:29;28.50;58.50
56761;DHT22;42633;44.494;11.356;2022-07-23T04:23:37;28.50;59.10
56761;DHT22;42633;44.494;11.356;2022-07-23T04:26:43;28.50;58.40
56761;DHT22;42633;44.494;11.356;2022-07-23T04:29:47;28.50;58.40
56761;DHT22;42633;44.494;11.356;2022-07-23T04:32:51;28.50;58.40
56761;DHT22;42633;44.494;11.356;2022-07-23T04:36:01;28.50;58.30
56761;DHT22;42633;44.494;11.356;2022-07-23T04:39:05;28.50;58.20
56761;DHT22;42633;44.494;11.356;2022-07-23T04:42:09;28.50;58.00
56761;DHT22;42633;44.494;11.356;2022-07-23T04:45:13;28.60;57.80
56761;DHT22;42633;44.494;11.356;2022-07-23T04:48:19;28.60;57.80
56761;DHT22;42633;44.494;11.356;2022-07-23T04:51:28;28.70;57.80
56761;DHT22;42633;44.494;11.356;2022-07-23T04:54:33;28.70;57.70
56761;DHT22;42633;44.494;11.356;2022-07-23T04:57:38;28.70;57.80
56761;DHT22;42633;44.494;11.356;2022-07-23T05:00:42;28.70;57.80
56761;DHT22;42633;44.494;11.356;2022-07-23T05:03:46;28.70;57.80
56761;DHT22;42633;44.494;11.356;2022-07-23T05:06:52;28.80;57.90
56761;DHT22;42633;44.494;11.356;2022-07-23T05:09:56;28.80;57.80
56761;DHT22;42633;44.494;11.356;2022-07-23T05:13:00;28.80;58.00
56761;DHT22;42633;44.494;11.356;2022-07-23T05:16:04;28.90;57.70
56761;DHT22;42633;44.494;11.356;2022-07-23T05:19:09;29.20;57.30
56761;DHT22;42633;44.494;11.356;2022-07-23T05:22:14;29.80;56.90
56761;DHT22;42633;44.494;11.356;2022-07-23T05:25:18;30.50;55.20
56761;DHT22;42633;44.494;11.356;2022-07-23T05:28:22;31.00;54.30
56761;DHT22;42633;44.494;11.356;2022-07-23T05:31:26;31.30;53.70
56761;DHT22;42633;44.494;11.356;2022-07-23T05:34:30;31.60;53.40
56761;DHT22;42633;44.494;11.356;2022-07-23T05:37:36;31.70;53.30
56761;DHT22;42633;44.494;11.356;2022-07-23T05:40:40;31.70;53.30
56761;DHT22;42633;44.494;11.356;2022-07-23T05:43:45;31.80;53.30
56761;DHT22;42633;44.494;11.356;2022-07-23T05:46:49;31.80;53.10
56761;DHT22;42633;44.494;11.356;2022-07-23T05:49:57;31.80;53.00
56761;DHT22;42633;44.494;11.356;2022-07-23T05:53:12;31.80;53.10
56761;DHT22;42633;44.494;11.356;2022-07-23T05:56:37;31.90;53.20
56761;DHT22;42633;44.494;11.356;2022-07-23T05:59:41;31.80;53.10
56761;DHT22;42633;44.494;11.356;2022-07-23T06:02:45;31.80;53.30
56761;DHT22;42633;44.494;11.356;2022-07-23T06:05:50;31.80;53.30
56761;DHT22;42633;44.494;11.356;2022-07-23T06:08:55;31.80;53.50
56761;DHT22;42633;44.494;11.356;2022-07-23T06:11:59;31.80;53.80
56761;DHT22;42633;44.494;11.356;2022-07-23T06:15:04;31.70;54.00
56761;DHT22;42633;44.494;11.356;2022-07-23T06:18:09;31.60;54.20
56761;DHT22;42633;44.494;11.356;2022-07-23T06:21:13;31.50;54.60
56761;DHT22;42633;44.494;11.356;2022-07-23T06:24:17;31.40;54.80
56761;DHT22;42633;44.494;11.356;2022-07-23T06:27:21;31.30;55.20
56761;DHT22;42633;44.494;11.356;2022-07-23T06:30:25;31.20;55.40
56761;DHT22;42633;44.494;11.356;2022-07-23T06:33:29;31.10;55.80
56761;DHT22;42633;44.494;11.356;2022-07-23T06:36:33;31.10;55.90
56761;DHT22;42633;44.494;11.356;2022-07-23T06:39:37;31.10;56.00
56761;DHT22;42633;44.494;11.356;2022-07-23T06:42:41;31.10;55.70
56761;DHT22;42633;44.494;11.356;2022-07-23T06:45:52;31.10;55.80
56761;DHT22;42633;44.494;11.356;2022-07-23T06:48:56;31.10;55.90
56761;DHT22;42633;44.494;11.356;2022-07-23T06:52:00;31.10;55.90
56761;DHT22;42633;44.494;11.356;2022-07-23T06:55:04;31.20;56.00
56761;DHT22;42633;44.494;11.356;2022-07-23T06:58:08;31.20;55.90
56761;DHT22;42633;44.494;11.356;2022-07-23T07:01:13;31.20;55.80
56761;DHT22;42633;44.494;11.356;2022-07-23T07:04:18;31.30;56.00
56761;DHT22;42633;44.494;11.356;2022-07-23T07:07:22;31.30;55.90
56761;DHT22;42633;44.494;11.356;2022-07-23T07:10:26;31.40;56.00
56761;DHT22;42633;44.494;11.356;2022-07-23T07:13:30;31.50;56.00
56761;DHT22;42633;44.494;11.356;2022-07-23T07:16:34;31.60;56.30
56761;DHT22;42633;44.494;11.356;2022-07-23T07:19:38;31.60;56.30
56761;DHT22;42633;44.494;11.356;2022-07-23T07:22:43;31.70;56.20
56761;DHT22;42633;44.494;11.356;2022-07-23T07:25:48;31.70;55.70
56761;DHT22;42633;44.494;11.356;2022-07-23T07:28:52;31.80;55.50
56761;DHT22;42633;44.494;11.356;2022-07-23T07:31:56;31.90;55.40
56761;DHT22;42633;44.494;11.356;2022-07-23T07:35:00;31.90;55.30
56761;DHT22;42633;44.494;11.356;2022-07-23T07:38:04;32.00;55.30
56761;DHT22;42633;44.494;11.356;2022-07-23T07:41:08;31.90;55.30
56761;DHT22;42633;44.494;11.356;2022-07-23T07:44:13;32.00;55.30
56761;DHT22;42633;44.494;11.356;2022-07-23T07:47:18;32.00;55.30
56761;DHT22;42633;44.494;11.356;2022-07-23T07:50:22;32.20;55.10
56761;DHT22;42633;44.494;11.356;2022-07-23T07:53:26;32.30;55.00
56761;DHT22;42633;44.494;11.356;2022-07-23T07:56:30;32.40;55.40
56761;DHT22;42633;44.494;11.356;2022-07-23T07:59:34;32.50;54.80
56761;DHT22;42633;44.494;11.356;2022-07-23T08:02:52;32.60;54.30
56761;DHT22;42633;44.494;11.356;2022-07-23T08:05:56;32.80;54.10
56761;DHT22;42633;44.494;11.356;2022-07-23T08:09:01;33.00;54.20
56761;DHT22;42633;44.494;11.356;2022-07-23T08:12:05;33.20;53.70
56761;DHT22;42633;44.494;11.356;2022-07-23T08:15:09;33.30;53.30
56761;DHT22;42633;44.494;11.356;2022-07-23T08:18:13;33.50;53.40
56761;DHT22;42633;44.494;11.356;2022-07-23T08:21:17;33.60;53.20
56761;DHT22;42633;44.494;11.356;2022-07-23T08:24:21;33.50;52.90
56761;DHT22;42633;44.494;11.356;2022-07-23T08:27:25;33.50;52.90
56761;DHT22;42633;44.494;11.356;2022-07-23T08:30:30;33.60;53.10
56761;DHT22;42633;44.494;11.356;2022-07-23T08:33:35;33.60;52.80
56761;DHT22;42633;44.494;11.356;2022-07-23T08:36:40;33.70;53.10
56761;DHT22;42633;44.494;11.356;2022-07-23T08:39:44;33.80;52.60
56761;DHT22;42633;44.494;11.356;2022-07-23T08:42:49;34.00;52.20
56761;DHT22;42633;44.494;11.356;2022-07-23T08:45:55;34.10;51.90
56761;DHT22;42633;44.494;11.356;2022-07-23T08:49:00;34.10;51.60
56761;DHT22;42633;44.494;11.356;2022-07-23T08:52:05;34.30;51.20
56761;DHT22;42633;44.494;11.356;2022-07-23T08:55:09;34.40;49.50
56761;DHT22;42633;44.494;11.356;2022-07-23T08:58:13;34.50;49.20
56761;DHT22;42633;44.494;11.356;2022-07-23T09:01:17;34.60;48.00
56761;DHT22;42633;44.494;11.356;2022-07-23T09:04:21;34.60;47.00
56761;DHT22;42633;44.494;11.356;2022-07-23T09:07:25;34.60;47.60
56761;DHT22;42633;44.494;11.356;2022-07-23T09:10:29;34.60;46.40
56761;DHT22;42633;44.494;11.356;2022-07-23T09:13:52;34.70;46.80
56761;DHT22;42633;44.494;11.356;2022-07-23T09:16:56;34.80;44.50
56761;DHT22;42633;44.494;11.356;2022-07-23T09:20:16;34.90;45.30
56761;DHT22;42633;44.494;11.356;2022-07-23T09:23:31;34.90;44.20
56761;DHT22;42633;44.494;11.356;2022-07-23T09:26:40;35.00;44.40
56761;DHT22;42633;44.494;11.356;2022-07-23T09:29:55;34.90;44.70
56761;DHT22;42633;44.494;11.356;2022-07-23T09:36:13;34.90;43.70
56761;DHT22;42633;44.494;11.356;2022-07-23T09:39:31;35.00;44.20
56761;DHT22;42633;44.494;11.356;2022-07-23T09:42:36;35.10;43.40
56761;DHT22;42633;44.494;11.356;2022-07-23T09:45:40;35.10;44.50
56761;DHT22;42633;44.494;11.356;2022-07-23T09:48:44;35.30;43.90
56761;DHT22;42633;44.494;11.356;2022-07-23T09:51:57;35.40;44.00
56761;DHT22;42633;44.494;11.356;2022-07-23T09:55:04;35.60;43.60
56761;DHT22;42633;44.494;11.356;2022-07-23T09:58:08;35.60;44.00
56761;DHT22;42633;44.494;11.356;2022-07-23T10:01:16;35.60;43.80
56761;DHT22;42633;44.494;11.356;2022-07-23T10:04:22;35.80;43.70
56761;DHT22;42633;44.494;11.356;2022-07-23T10:07:51;35.90;43.20
56761;DHT22;42633;44.494;11.356;2022-07-23T10:11:14;36.00;43.90
56761;DHT22;42633;44.494;11.356;2022-07-23T10:14:22;35.90;43.80
56761;DHT22;42633;44.494;11.356;2022-07-23T10:17:33;35.80;44.00
56761;DHT22;42633;44.494;11.356;2022-07-23T10:20:38;36.00;44.10
56761;DHT22;42633;44.494;11.356;2022-07-23T10:24:07;36.00;43.80
56761;DHT22;42633;44.494;11.356;2022-07-23T10:40:36;36.40;43.50
56761;DHT22;42633;44.494;11.356;2022-07-23T10:43:40;36.40;43.50
56761;DHT22;42633;44.494;11.356;2022-07-23T10:47:01;36.50;43.70
56761;DHT22;42633;44.494;11.356;2022-07-23T10:50:31;36.70;44.00
56761;DHT22;42633;44.494;11.356;2022-07-23T10:53:57;36.80;43.40
56761;DHT22;42633;44.494;11.356;2022-07-23T10:57:06;36.80;43.70
56761;DHT22;42633;44.494;11.356;2022-07-23T11:00:15;36.70;43.70
56761;DHT22;42633;44.494;11.356;2022-07-23T11:03:30;36.10;44.40
56761;DHT22;42633;44.494;11.356;2022-07-23T11:10:33;36.00;44.60
56761;DHT22;42633;44.494;11.356;2022-07-23T11:13:40;36.10;44.80
56761;DHT22;42633;44.494;11.356;2022-07-23T11:16:47;36.20;44.40
56761;DHT22;42633;44.494;11.356;2022-07-23T11:23:11;36.40;44.50
56761;DHT22;42633;44.494;11.356;2022-07-23T11:26:49;36.30;43.90
56761;DHT22;42633;44.494;11.356;2022-07-23T11:29:54;36.10;44.70
56761;DHT22;42633;44.494;11.356;2022-07-23T11:36:11;36.40;44.40
56761;DHT22;42633;44.494;11.356;2022-07-23T11:39:15;36.60;43.90
56761;DHT22;42633;44.494;11.356;2022-07-23T11:42:20;36.70;44.30
56761;DHT22;42633;44.494;11.356;2022-07-23T11:49:02;36.90;44.20
56761;DHT22;42633;44.494;11.356;2022-07-23T11:52:09;37.10;43.90
56761;DHT22;42633;44.494;11.356;2022-07-23T11:55:14;37.00;43.40
56761;DHT22;42633;44.494;11.356;2022-07-23T11:58:19;37.10;43.30
56761;DHT22;42633;44.494;11.356;2022-07-23T12:01:24;37.00;43.70
56761;DHT22;42633;44.494;11.356;2022-07-23T12:04:41;37.10;43.50
56761;DHT22;42633;44.494;11.356;2022-07-23T12:07:47;37.30;43.80
56761;DHT22;42633;44.494;11.356;2022-07-23T12:10:54;37.60;43.30
56761;DHT22;42633;44.494;11.356;2022-07-23T12:13:58;37.70;43.20
56761;DHT22;42633;44.494;11.356;2022-07-23T12:17:12;37.70;44.10
56761;DHT22;42633;44.494;11.356;2022-07-23T12:20:27;37.90;43.10
56761;DHT22;42633;44.494;11.356;2022-07-23T12:23:31;37.70;42.90
56761;DHT22;42633;44.494;11.356;2022-07-23T12:26:35;37.80;43.10
56761;DHT22;42633;44.494;11.356;2022-07-23T12:29:40;37.50;43.60
56761;DHT22;42633;44.494;11.356;2022-07-23T12:32:45;37.10;44.00
56761;DHT22;42633;44.494;11.356;2022-07-23T12:35:53;36.80;44.00
56761;DHT22;42633;44.494;11.356;2022-07-23T12:38:57;36.70;44.10
56761;DHT22;42633;44.494;11.356;2022-07-23T12:42:11;37.10;43.70
56761;DHT22;42633;44.494;11.356;2022-07-23T12:45:16;37.70;43.40
56761;DHT22;42633;44.494;11.356;2022-07-23T12:48:33;38.10;42.90
56761;DHT22;42633;44.494;11.356;2022-07-23T12:51:40;38.40;42.80
56761;DHT22;42633;44.494;11.356;2022-07-23T12:54:44;38.40;42.10
56761;DHT22;42633;44.494;11.356;2022-07-23T12:57:47;38.40;42.50
56761;DHT22;42633;44.494;11.356;2022-07-23T13:01:03;38.50;42.40
56761;DHT22;42633;44.494;11.356;2022-07-23T13:07:11;38.80;42.30
56761;DHT22;42633;44.494;11.356;2022-07-23T13:10:15;38.80;42.30
56761;DHT22;42633;44.494;11.356;2022-07-23T13:13:24;38.90;42.10
56761;DHT22;42633;44.494;11.356;2022-07-23T13:16:30;39.00;42.30
56761;DHT22;42633;44.494;11.356;2022-07-23T13:19:34;39.10;42.20
56761;DHT22;42633;44.494;11.356;2022-07-23T13:22:38;39.20;41.80
56761;DHT22;42633;44.494;11.356;2022-07-23T13:25:44;39.20;42.00
56761;DHT22;42633;44.494;11.356;2022-07-23T13:28:48;39.30;42.00
56761;DHT22;42633;44.494;11.356;2022-07-23T13:31:54;39.30;41.80
56761;DHT22;42633;44.494;11.356;2022-07-23T13:34:58;39.40;41.90
56761;DHT22;42633;44.494;11.356;2022-07-23T13:38:04;39.30;41.90
56761;DHT22;42633;44.494;11.356;2022-07-23T13:41:08;38.90;42.10
56761;DHT22;42633;44.494;11.356;2022-07-23T13:44:12;38.80;42.40
56761;DHT22;42633;44.494;11.356;2022-07-23T13:47:16;38.60;42.60
56761;DHT22;42633;44.494;11.356;2022-07-23T13:50:20;38.60;42.50
56761;DHT22;42633;44.494;11.356;2022-07-23T13:53:24;38.60;42.50
56761;DHT22;42633;44.494;11.356;2022-07-23T13:56:28;38.70;42.70
56761;DHT22;42633;44.494;11.356;2022-07-23T13:59:32;38.90;42.20
56761;DHT22;42633;44.494;11.356;2022-07-23T14:02:38;38.80;42.30
56761;DHT22;42633;44.494;11.356;2022-07-23T14:05:43;39.00;42.40
56761;DHT22;42633;44.494;11.356;2022-07-23T14:08:47;39.10;42.30
56761;DHT22;42633;44.494;11.356;2022-07-23T14:11:53;39.10;42.20
56761;DHT22;42633;44.494;11.356;2022-07-23T14:14:57;39.00;42.50
56761;DHT22;42633;44.494;11.356;2022-07-23T14:18:01;38.90;42.60
56761;DHT22;42633;44.494;11.356;2022-07-23T14:21:05;39.00;43.30
56761;DHT22;42633;44.494;11.356;2022-07-23T14:24:09;39.00;42.50
56761;DHT22;42633;44.494;11.356;2022-07-23T14:27:13;38.90;42.80
56761;DHT22;42633;44.494;11.356;2022-07-23T14:30:17;38.80;43.00
56761;DHT22;42633;44.494;11.356;2022-07-23T14:33:20;38.80;42.50
56761;DHT22;42633;44.494;11.356;2022-07-23T14:36:25;39.00;42.80
56761;DHT22;42633;44.494;11.356;2022-07-23T14:39:29;39.00;42.70
56761;DHT22;42633;44.494;11.356;2022-07-23T14:42:34;39.10;42.70
56761;DHT22;42633;44.494;11.356;2022-07-23T14:45:38;39.00;42.60
56761;DHT22;42633;44.494;11.356;2022-07-23T14:48:43;38.80;42.80
56761;DHT22;42633;44.494;11.356;2022-07-23T14:51:47;38.90;42.80
56761;DHT22;42633;44.494;11.356;2022-07-23T14:54:51;38.90;42.80
56761;DHT22;42633;44.494;11.356;2022-07-23T14:57:55;39.00;42.60
56761;DHT22;42633;44.494;11.356;2022-07-23T15:00:59;39.10;42.70
56761;DHT22;42633;44.494;11.356;2022-07-23T15:04:04;39.10;42.60
56761;DHT22;42633;44.494;11.356;2022-07-23T15:07:09;39.20;42.70
56761;DHT22;42633;44.494;11.356;2022-07-23T15:10:13;39.00;42.50
56761;DHT22;42633;44.494;11.356;2022-07-23T15:13:17;38.80;42.40
56761;DHT22;42633;44.494;11.356;2022-07-23T15:16:21;38.70;43.00
56761;DHT22;42633;44.494;11.356;2022-07-23T15:19:26;38.80;42.70
56761;DHT22;42633;44.494;11.356;2022-07-23T15:22:30;38.90;42.70
56761;DHT22;42633;44.494;11.356;2022-07-23T15:25:34;38.80;42.70
56761;DHT22;42633;44.494;11.356;2022-07-23T15:28:39;38.80;42.80
56761;DHT22;42633;44.494;11.356;2022-07-23T15:31:43;38.70;42.90
56761;DHT22;42633;44.494;11.356;2022-07-23T15:34:47;38.60;42.70
56761;DHT22;42633;44.494;11.356;2022-07-23T15:37:51;38.60;43.10
56761;DHT22;42633;44.494;11.356;2022-07-23T15:40:56;38.50;43.00
56761;DHT22;42633;44.494;11.356;2022-07-23T15:44:00;38.50;42.80
56761;DHT22;42633;44.494;11.356;2022-07-23T15:47:03;38.50;43.20
56761;DHT22;42633;44.494;11.356;2022-07-23T15:50:08;38.50;42.90
56761;DHT22;42633;44.494;11.356;2022-07-23T15:53:13;38.50;43.10
56761;DHT22;42633;44.494;11.356;2022-07-23T15:56:18;38.50;43.30
56761;DHT22;42633;44.494;11.356;2022-07-23T15:59:22;38.50;42.90
56761;DHT22;42633;44.494;11.356;2022-07-23T16:02:26;38.50;43.30
56761;DHT22;42633;44.494;11.356;2022-07-23T16:05:30;38.50;43.10
56761;DHT22;42633;44.494;11.356;2022-07-23T16:08:35;38.50;43.10
56761;DHT22;42633;44.494;11.356;2022-07-23T16:11:40;38.50;43.30
56761;DHT22;42633;44.494;11.356;2022-07-23T16:14:44;38.60;43.50
56761;DHT22;42633;44.494;11.356;2022-07-23T16:17:48;38.60;42.90
56761;DHT22;42633;44.494;11.356;2022-07-23T16:20:53;38.70;42.90
56761;DHT22;42633;44.494;11.356;2022-07-23T16:23:57;38.60;43.20
56761;DHT22;42633;44.494;11.356;2022-07-23T16:27:01;38.60;43.00
56761;DHT22;42633;44.494;11.356;2022-07-23T16:30:06;38.70;43.30
56761;DHT22;42633;44.494;11.356;2022-07-23T16:33:11;39.30;43.00
56761;DHT22;42633;44.494;11.356;2022-07-23T16:36:15;40.30;41.90
56761;DHT22;42633;44.494;11.356;2022-07-23T16:39:19;41.40;40.80
56761;DHT22;42633;44.494;11.356;2022-07-23T16:42:24;42.20;40.10
56761;DHT22;42633;44.494;11.356;2022-07-23T16:45:28;42.30;39.80
56761;DHT22;42633;44.494;11.356;2022-07-23T16:48:32;41.50;40.40
56761;DHT22;42633;44.494;11.356;2022-07-23T16:51:37;40.50;41.30
56761;DHT22;42633;44.494;11.356;2022-07-23T16:54:41;39.80;42.00
56761;DHT22;42633;44.494;11.356;2022-07-23T16:57:45;39.20;42.40
56761;DHT22;42633;44.494;11.356;2022-07-23T17:00:49;38.80;43.10
56761;DHT22;42633;44.494;11.356;2022-07-23T17:03:53;38.40;43.40
56761;DHT22;42633;44.494;11.356;2022-07-23T17:06:58;38.10;43.80
56761;DHT22;42633;44.494;11.356;2022-07-23T17:10:07;38.40;43.70
56761;DHT22;42633;44.494;11.356;2022-07-23T17:13:11;38.40;43.40
56761;DHT22;42633;44.494;11.356;2022-07-23T17:16:16;38.20;43.80
56761;DHT22;42633;44.494;11.356;2022-07-23T17:19:21;38.00;43.90
56761;DHT22;42633;44.494;11.356;2022-07-23T17:22:25;37.80;44.10
56761;DHT22;42633;44.494;11.356;2022-07-23T17:25:29;37.60;44.20
56761;DHT22;42633;44.494;11.356;2022-07-23T17:28:34;37.40;44.40
56761;DHT22;42633;44.494;11.356;2022-07-23T17:31:39;37.30;44.70
56761;DHT22;42633;44.494;11.356;2022-07-23T17:34:43;37.10;45.00
56761;DHT22;42633;44.494;11.356;2022-07-23T17:37:47;37.00;45.20
56761;DHT22;42633;44.494;11.356;2022-07-23T17:40:51;36.90;45.40
56761;DHT22;42633;44.494;11.356;2022-07-23T17:43:56;36.70;45.40
56761;DHT22;42633;44.494;11.356;2022-07-23T17:47:03;36.70;45.50
56761;DHT22;42633;44.494;11.356;2022-07-23T17:50:09;36.60;45.70
56761;DHT22;42633;44.494;11.356;2022-07-23T17:53:17;36.40;45.90
56761;DHT22;42633;44.494;11.356;2022-07-23T17:56:21;36.30;46.20
56761;DHT22;42633;44.494;11.356;2022-07-23T17:59:27;36.30;46.00
56761;DHT22;42633;44.494;11.356;2022-07-23T18:02:31;36.20;46.40
56761;DHT22;42633;44.494;11.356;2022-07-23T18:05:36;36.20;46.00
56761;DHT22;42633;44.494;11.356;2022-07-23T18:08:43;36.10;46.20
56761;DHT22;42633;44.494;11.356;2022-07-23T18:11:48;36.10;46.20
56761;DHT22;42633;44.494;11.356;2022-07-23T18:14:53;36.00;46.30
56761;DHT22;42633;44.494;11.356;2022-07-23T18:17:57;36.00;46.00
56761;DHT22;42633;44.494;11.356;2022-07-23T18:21:03;35.90;46.00
56761;DHT22;42633;44.494;11.356;2022-07-23T18:24:09;35.90;46.30
56761;DHT22;42633;44.494;11.356;2022-07-23T18:27:13;35.80;46.30
56761;DHT22;42633;44.494;11.356;2022-07-23T18:30:17;35.80;46.00
56761;DHT22;42633;44.494;11.356;2022-07-23T18:33:23;35.70;46.30
56761;DHT22;42633;44.494;11.356;2022-07-23T18:36:27;35.60;46.30
56761;DHT22;42633;44.494;11.356;2022-07-23T18:39:31;35.50;46.40
56761;DHT22;42633;44.494;11.356;2022-07-23T18:42:40;35.40;46.80
56761;DHT22;42633;44.494;11.356;2022-07-23T18:45:46;35.30;46.40
56761;DHT22;42633;44.494;11.356;2022-07-23T18:48:52;35.20;46.70
56761;DHT22;42633;44.494;11.356;2022-07-23T18:51:58;35.10;47.30
56761;DHT22;42633;44.494;11.356;2022-07-23T18:55:16;35.00;47.70
56761;DHT22;42633;44.494;11.356;2022-07-23T18:58:25;34.90;47.40
56761;DHT22;42633;44.494;11.356;2022-07-23T19:01:36;34.90;48.00
56761;DHT22;42633;44.494;11.356;2022-07-23T19:04:41;34.90;48.50
56761;DHT22;42633;44.494;11.356;2022-07-23T19:07:45;34.80;48.70
56761;DHT22;42633;44.494;11.356;2022-07-23T19:10:51;34.70;48.80
56761;DHT22;42633;44.494;11.356;2022-07-23T19:13:55;34.70;49.40
56761;DHT22;42633;44.494;11.356;2022-07-23T19:17:00;34.70;48.50
56761;DHT22;42633;44.494;11.356;2022-07-23T19:20:05;34.60;48.80
56761;DHT22;42633;44.494;11.356;2022-07-23T19:23:11;34.50;47.60
56761;DHT22;42633;44.494;11.356;2022-07-23T19:26:16;34.50;47.50
56761;DHT22;42633;44.494;11.356;2022-07-23T19:29:20;34.50;47.20
56761;DHT22;42633;44.494;11.356;2022-07-23T19:32:24;34.40;47.00
56761;DHT22;42633;44.494;11.356;2022-07-23T19:35:29;34.30;47.90
56761;DHT22;42633;44.494;11.356;2022-07-23T19:38:33;34.30;47.30
56761;DHT22;42633;44.494;11.356;2022-07-23T19:41:37;34.30;46.70
56761;DHT22;42633;44.494;11.356;2022-07-23T19:44:41;34.20;47.30
56761;DHT22;42633;44.494;11.356;2022-07-23T19:47:45;34.20;47.10